sensor_id;sensor_type;location;lat;lon;timestamp;P1;durP1;ratioP1;P2;durP2;ratioP2
19733;SDS011;10018;51.230;7.860;2022-12-22T00:01:11;7.30;;;4.80;;
19733;SDS011;10018;51.230;7.860;2022-12-22T00:03:55;8.93;;;6.40;;
19733;SDS011;10018;51.230;7.860;2022-12-22T00:06:39;9.90;;;6.17;;
19733;SDS011;10018;51.230;7.860;2022-12-22T00:09:23;10.17;;;5.77;;
19733;SDS011;10018;51.230;7.860;2022-12-22T00:12:09;6.40;;;4.20;;
19733;SDS011;10018;51.230;7.860;2022-12-22T00:14:53;7.43;;;4.70;;
19733;SDS011;10018;51.230;7.860;2022-12-22T00:17:38;8.33;;;4.97;;
19733;SDS011;10018;51.230;7.860;2022-12-22T00:20:21;12.03;;;5.60;;
19733;SDS011;10018;51.230;7.860;2022-12-22T00:23:07;9.30;;;5.03;;
19733;SDS011;10018;51.230;7.860;2022-12-22T00:25:52;6.13;;;3.83;;
19733;SDS011;10018;51.230;7.860;2022-12-22T00:28:36;9.90;;;5.70;;
19733;SDS011;10018;51.230;7.860;2022-12-22T00:31:21;8.40;;;5.37;;
19733;SDS011;10018;51.230;7.860;2022-12-22T00:34:11;9.03;;;5.63;;
19733;SDS011;10018;51.230;7.860;2022-12-22T00:36:57;10.20;;;5.47;;
19733;SDS011;10018;51.230;7.860;2022-12-22T00:39:41;11.13;;;6.47;;
19733;SDS011;10018;51.230;7.860;2022-12-22T00:42:25;9.63;;;5.63;;
19733;SDS011;10018;51.230;7.860;2022-12-22T00:45:09;8.70;;;5.43;;
19733;SDS011;10018;51.230;7.860;2022-12-22T00:47:53;6.93;;;4.70;;
19733;SDS011;10018;51.230;7.860;2022-12-22T00:50:37;7.40;;;5.17;;
19733;SDS011;10018;51.230;7.860;2022-12-22T00:53:21;7.90;;;4.70;;
19733;SDS011;10018;51.230;7.860;2022-12-22T00:56:06;8.07;;;4.80;;
19733;SDS011;10018;51.230;7.860;2022-12-22T00:58:51;7.33;;;4.43;;
19733;SDS011;10018;51.230;7.860;2022-12-22T01:01:37;7.47;;;4.27;;
19733;SDS011;10018;51.230;7.860;2022-12-22T01:04:22;7.43;;;4.10;;
19733;SDS011;10018;51.230;7.860;2022-12-22T01:07:09;9.27;;;4.30;;
19733;SDS011;10018;51.230;7.860;2022-12-22T01:09:54;7.73;;;3.63;;
19733;SDS011;10018;51.230;7.860;2022-12-22T01:12:38;4.83;;;3.47;;
19733;SDS011;10018;51.230;7.860;2022-12-22T01:15:23;6.40;;;3.47;;
19733;SDS011;10018;51.230;7.860;2022-12-22T01:18:08;8.83;;;4.57;;
19733;SDS011;10018;51.230;7.860;2022-12-22T01:20:52;11.67;;;5.10;;
19733;SDS011;10018;51.230;7.860;2022-12-22T01:23:37;7.87;;;4.10;;
19733;SDS011;10018;51.230;7.860;2022-12-22T01:26:22;7.30;;;4.10;;
19733;SDS011;10018;51.230;7.860;2022-12-22T01:29:06;10.80;;;5.70;;
19733;SDS011;10018;51.230;7.860;2022-12-22T01:31:50;9.20;;;4.97;;
19733;SDS011;10018;51.230;7.860;2022-12-22T01:34:34;9.43;;;4.67;;
19733;SDS011;10018;51.230;7.860;2022-12-22T01:37:19;9.73;;;4.97;;
19733;SDS011;10018;51.230;7.860;2022-12-22T01:40:03;8.87;;;4.23;;
19733;SDS011;10018;51.230;7.860;2022-12-22T01:42:47;8.03;;;4.83;;
19733;SDS011;10018;51.230;7.860;2022-12-22T01:45:32;11.63;;;5.03;;
19733;SDS011;10018;51.230;7.860;2022-12-22T01:48:19;10.33;;;5.60;;
19733;SDS011;10018;51.230;7.860;2022-12-22T01:51:09;9.33;;;5.47;;
19733;SDS011;10018;51.230;7.860;2022-12-22T01:54:00;9.87;;;5.60;;
19733;SDS011;10018;51.230;7.860;2022-12-22T01:56:45;12.53;;;5.60;;
19733;SDS011;10018;51.230;7.860;2022-12-22T01:59:31;11.53;;;6.13;;
19733;SDS011;10018;51.230;7.860;2022-12-22T02:02:15;8.30;;;4.60;;
19733;SDS011;10018;51.230;7.860;2022-12-22T02:05:01;11.70;;;5.60;;
19733;SDS011;10018;51.230;7.860;2022-12-22T02:14:34;8.23;;;4.87;;
19733;SDS011;10018;51.230;7.860;2022-12-22T02:17:30;6.80;;;4.53;;
19733;SDS011;10018;51.230;7.860;2022-12-22T02:20:33;10.13;;;5.43;;
19733;SDS011;10018;51.230;7.860;2022-12-22T02:27:00;7.90;;;4.53;;
19733;SDS011;10018;51.230;7.860;2022-12-22T02:29:50;8.53;;;5.30;;
19733;SDS011;10018;51.230;7.860;2022-12-22T02:32:37;7.30;;;5.40;;
19733;SDS011;10018;51.230;7.860;2022-12-22T02:35:24;9.40;;;5.27;;
19733;SDS011;10018;51.230;7.860;2022-12-22T02:44:07;6.17;;;4.23;;
19733;SDS011;10018;51.230;7.860;2022-12-22T02:50:33;6.87;;;4.27;;
19733;SDS011;10018;51.230;7.860;2022-12-22T02:53:22;7.77;;;4.63;;
19733;SDS011;10018;51.230;7.860;2022-12-22T02:56:07;6.90;;;4.10;;
19733;SDS011;10018;51.230;7.860;2022-12-22T02:58:52;11.03;;;5.30;;
19733;SDS011;10018;51.230;7.860;2022-12-22T03:01:37;6.40;;;3.73;;
19733;SDS011;10018;51.230;7.860;2022-12-22T03:04:22;6.97;;;3.83;;
19733;SDS011;10018;51.230;7.860;2022-12-22T03:07:06;11.53;;;5.53;;
19733;SDS011;10018;51.230;7.860;2022-12-22T03:09:50;12.33;;;5.30;;
19733;SDS011;10018;51.230;7.860;2022-12-22T03:12:34;7.17;;;4.03;;
19733;SDS011;10018;51.230;7.860;2022-12-22T03:15:18;6.83;;;4.30;;
19733;SDS011;10018;51.230;7.860;2022-12-22T03:18:06;5.63;;;3.07;;
19733;SDS011;10018;51.230;7.860;2022-12-22T03:20:52;6.80;;;3.20;;
19733;SDS011;10018;51.230;7.860;2022-12-22T03:23:36;6.47;;;3.23;;
19733;SDS011;10018;51.230;7.860;2022-12-22T03:26:20;8.10;;;4.40;;
19733;SDS011;10018;51.230;7.860;2022-12-22T03:28:47;6.83;;;4.00;;
19733;SDS011;10018;51.230;7.860;2022-12-22T03:31:12;5.37;;;3.37;;
19733;SDS011;10018;51.230;7.860;2022-12-22T03:33:38;7.20;;;3.37;;
19733;SDS011;10018;51.230;7.860;2022-12-22T03:36:05;6.97;;;3.60;;
19733;SDS011;10018;51.230;7.860;2022-12-22T03:38:31;6.70;;;3.37;;
19733;SDS011;10018;51.230;7.860;2022-12-22T03:40:57;9.47;;;4.40;;
19733;SDS011;10018;51.230;7.860;2022-12-22T03:43:23;6.13;;;3.73;;
19733;SDS011;10018;51.230;7.860;2022-12-22T03:46:12;6.47;;;3.37;;
19733;SDS011;10018;51.230;7.860;2022-12-22T03:48:55;5.67;;;3.13;;
19733;SDS011;10018;51.230;7.860;2022-12-22T03:51:34;5.70;;;2.97;;
19733;SDS011;10018;51.230;7.860;2022-12-22T03:54:04;6.10;;;2.70;;
19733;SDS011;10018;51.230;7.860;2022-12-22T03:56:30;4.80;;;2.43;;
19733;SDS011;10018;51.230;7.860;2022-12-22T03:58:56;6.10;;;2.63;;
19733;SDS011;10018;51.230;7.860;2022-12-22T04:01:22;5.47;;;2.60;;
19733;SDS011;10018;51.230;7.860;2022-12-22T04:03:48;2.90;;;1.80;;
19733;SDS011;10018;51.230;7.860;2022-12-22T04:06:14;4.10;;;1.93;;
19733;SDS011;10018;51.230;7.860;2022-12-22T04:08:40;4.23;;;2.10;;
19733;SDS011;10018;51.230;7.860;2022-12-22T04:11:06;4.83;;;2.10;;
19733;SDS011;10018;51.230;7.860;2022-12-22T04:13:51;3.67;;;1.73;;
19733;SDS011;10018;51.230;7.860;2022-12-22T04:16:17;3.23;;;1.60;;
19733;SDS011;10018;51.230;7.860;2022-12-22T04:18:42;2.67;;;1.30;;
19733;SDS011;10018;51.230;7.860;2022-12-22T04:21:08;2.80;;;1.27;;
19733;SDS011;10018;51.230;7.860;2022-12-22T04:23:33;2.87;;;1.20;;
19733;SDS011;10018;51.230;7.860;2022-12-22T04:25:59;1.73;;;1.03;;
19733;SDS011;10018;51.230;7.860;2022-12-22T04:28:24;1.90;;;1.07;;
19733;SDS011;10018;51.230;7.860;2022-12-22T04:30:50;3.27;;;1.60;;
19733;SDS011;10018;51.230;7.860;2022-12-22T04:33:16;3.33;;;1.80;;
19733;SDS011;10018;51.230;7.860;2022-12-22T04:35:42;3.93;;;1.63;;
19733;SDS011;10018;51.230;7.860;2022-12-22T04:38:08;5.27;;;1.40;;
19733;SDS011;10018;51.230;7.860;2022-12-22T04:40:33;5.63;;;1.83;;
19733;SDS011;10018;51.230;7.860;2022-12-22T04:42:59;2.93;;;1.40;;
19733;SDS011;10018;51.230;7.860;2022-12-22T04:45:25;2.73;;;1.20;;
19733;SDS011;10018;51.230;7.860;2022-12-22T04:47:50;2.07;;;0.87;;
19733;SDS011;10018;51.230;7.860;2022-12-22T04:50:16;3.37;;;1.07;;
19733;SDS011;10018;51.230;7.860;2022-12-22T04:52:41;2.07;;;0.90;;
19733;SDS011;10018;51.230;7.860;2022-12-22T04:55:07;1.57;;;0.70;;
19733;SDS011;10018;51.230;7.860;2022-12-22T04:57:33;4.30;;;1.10;;
19733;SDS011;10018;51.230;7.860;2022-12-22T04:59:59;1.40;;;0.90;;
19733;SDS011;10018;51.230;7.860;2022-12-22T05:02:24;1.27;;;0.63;;
19733;SDS011;10018;51.230;7.860;2022-12-22T05:04:50;1.37;;;0.70;;
19733;SDS011;10018;51.230;7.860;2022-12-22T05:07:15;1.70;;;0.60;;
19733;SDS011;10018;51.230;7.860;2022-12-22T05:09:41;2.17;;;0.70;;
19733;SDS011;10018;51.230;7.860;2022-12-22T05:12:06;0.70;;;0.60;;
19733;SDS011;10018;51.230;7.860;2022-12-22T05:14:50;1.33;;;0.60;;
19733;SDS011;10018;51.230;7.860;2022-12-22T05:17:16;2.40;;;0.60;;
19733;SDS011;10018;51.230;7.860;2022-12-22T05:19:42;1.90;;;0.80;;
19733;SDS011;10018;51.230;7.860;2022-12-22T05:22:07;2.53;;;1.07;;
19733;SDS011;10018;51.230;7.860;2022-12-22T05:24:33;6.33;;;2.33;;
19733;SDS011;10018;51.230;7.860;2022-12-22T05:26:58;5.20;;;2.60;;
19733;SDS011;10018;51.230;7.860;2022-12-22T05:29:24;5.47;;;2.60;;
19733;SDS011;10018;51.230;7.860;2022-12-22T05:31:50;5.07;;;1.87;;
19733;SDS011;10018;51.230;7.860;2022-12-22T05:34:15;3.97;;;2.30;;
19733;SDS011;10018;51.230;7.860;2022-12-22T05:36:40;4.60;;;2.00;;
19733;SDS011;10018;51.230;7.860;2022-12-22T05:39:06;3.90;;;1.87;;
19733;SDS011;10018;51.230;7.860;2022-12-22T05:41:32;5.33;;;1.97;;
19733;SDS011;10018;51.230;7.860;2022-12-22T05:43:57;4.10;;;1.80;;
19733;SDS011;10018;51.230;7.860;2022-12-22T05:46:23;4.77;;;1.83;;
19733;SDS011;10018;51.230;7.860;2022-12-22T05:48:48;2.57;;;1.30;;
19733;SDS011;10018;51.230;7.860;2022-12-22T05:51:14;2.77;;;1.00;;
19733;SDS011;10018;51.230;7.860;2022-12-22T05:53:39;2.73;;;1.20;;
19733;SDS011;10018;51.230;7.860;2022-12-22T05:56:05;2.00;;;1.00;;
19733;SDS011;10018;51.230;7.860;2022-12-22T05:58:32;2.27;;;1.10;;
19733;SDS011;10018;51.230;7.860;2022-12-22T06:01:00;4.90;;;1.80;;
19733;SDS011;10018;51.230;7.860;2022-12-22T06:03:26;5.13;;;1.60;;
19733;SDS011;10018;51.230;7.860;2022-12-22T06:05:52;3.00;;;1.50;;
19733;SDS011;10018;51.230;7.860;2022-12-22T06:08:18;4.40;;;1.37;;
19733;SDS011;10018;51.230;7.860;2022-12-22T06:10:44;2.50;;;1.30;;
19733;SDS011;10018;51.230;7.860;2022-12-22T06:13:09;4.77;;;1.70;;
19733;SDS011;10018;51.230;7.860;2022-12-22T06:15:35;6.23;;;2.30;;
19733;SDS011;10018;51.230;7.860;2022-12-22T06:18:00;5.13;;;2.10;;
19733;SDS011;10018;51.230;7.860;2022-12-22T06:20:26;4.40;;;1.60;;
19733;SDS011;10018;51.230;7.860;2022-12-22T06:22:51;5.63;;;2.27;;
19733;SDS011;10018;51.230;7.860;2022-12-22T06:25:17;4.23;;;2.17;;
19733;SDS011;10018;51.230;7.860;2022-12-22T06:27:42;5.23;;;2.70;;
19733;SDS011;10018;51.230;7.860;2022-12-22T06:30:08;4.87;;;2.40;;
19733;SDS011;10018;51.230;7.860;2022-12-22T06:32:35;7.00;;;3.23;;
19733;SDS011;10018;51.230;7.860;2022-12-22T06:35:01;5.10;;;3.07;;
19733;SDS011;10018;51.230;7.860;2022-12-22T06:37:28;3.83;;;2.27;;
19733;SDS011;10018;51.230;7.860;2022-12-22T06:39:53;2.80;;;1.90;;
19733;SDS011;10018;51.230;7.860;2022-12-22T06:42:19;4.23;;;2.17;;
19733;SDS011;10018;51.230;7.860;2022-12-22T06:45:03;6.77;;;3.83;;
19733;SDS011;10018;51.230;7.860;2022-12-22T06:47:29;4.87;;;3.20;;
19733;SDS011;10018;51.230;7.860;2022-12-22T06:49:54;6.87;;;4.50;;
19733;SDS011;10018;51.230;7.860;2022-12-22T06:52:20;5.67;;;4.07;;
19733;SDS011;10018;51.230;7.860;2022-12-22T06:54:45;5.23;;;4.00;;
19733;SDS011;10018;51.230;7.860;2022-12-22T06:57:11;6.77;;;3.30;;
19733;SDS011;10018;51.230;7.860;2022-12-22T06:59:36;4.80;;;3.30;;
19733;SDS011;10018;51.230;7.860;2022-12-22T07:02:02;6.67;;;3.40;;
19733;SDS011;10018;51.230;7.860;2022-12-22T07:04:27;4.27;;;2.47;;
19733;SDS011;10018;51.230;7.860;2022-12-22T07:06:54;4.33;;;2.23;;
19733;SDS011;10018;51.230;7.860;2022-12-22T07:09:20;3.50;;;2.00;;
19733;SDS011;10018;51.230;7.860;2022-12-22T07:11:45;8.87;;;4.57;;
19733;SDS011;10018;51.230;7.860;2022-12-22T07:14:11;8.80;;;5.67;;
19733;SDS011;10018;51.230;7.860;2022-12-22T07:16:37;14.43;;;8.00;;
19733;SDS011;10018;51.230;7.860;2022-12-22T07:19:02;12.70;;;7.00;;
19733;SDS011;10018;51.230;7.860;2022-12-22T07:21:28;8.60;;;5.30;;
19733;SDS011;10018;51.230;7.860;2022-12-22T07:23:53;9.20;;;5.10;;
19733;SDS011;10018;51.230;7.860;2022-12-22T07:26:19;10.13;;;6.00;;
19733;SDS011;10018;51.230;7.860;2022-12-22T07:28:44;10.87;;;5.50;;
19733;SDS011;10018;51.230;7.860;2022-12-22T07:31:10;9.70;;;5.70;;
19733;SDS011;10018;51.230;7.860;2022-12-22T07:33:36;10.07;;;6.20;;
19733;SDS011;10018;51.230;7.860;2022-12-22T07:36:03;11.80;;;7.43;;
19733;SDS011;10018;51.230;7.860;2022-12-22T07:38:37;11.43;;;7.67;;
19733;SDS011;10018;51.230;7.860;2022-12-22T07:41:04;20.70;;;11.57;;
19733;SDS011;10018;51.230;7.860;2022-12-22T07:43:51;10.03;;;6.70;;
19733;SDS011;10018;51.230;7.860;2022-12-22T07:46:17;11.83;;;7.10;;
19733;SDS011;10018;51.230;7.860;2022-12-22T07:48:43;10.37;;;6.80;;
19733;SDS011;10018;51.230;7.860;2022-12-22T07:51:30;8.10;;;4.90;;
19733;SDS011;10018;51.230;7.860;2022-12-22T07:53:57;7.93;;;4.90;;
19733;SDS011;10018;51.230;7.860;2022-12-22T07:56:23;7.03;;;4.40;;
19733;SDS011;10018;51.230;7.860;2022-12-22T07:58:48;8.73;;;4.70;;
19733;SDS011;10018;51.230;7.860;2022-12-22T08:01:14;7.47;;;4.67;;
19733;SDS011;10018;51.230;7.860;2022-12-22T08:03:39;10.10;;;5.80;;
19733;SDS011;10018;51.230;7.860;2022-12-22T08:06:05;10.67;;;5.53;;
19733;SDS011;10018;51.230;7.860;2022-12-22T08:08:32;10.50;;;5.63;;
19733;SDS011;10018;51.230;7.860;2022-12-22T08:11:02;7.63;;;4.83;;
19733;SDS011;10018;51.230;7.860;2022-12-22T08:13:28;8.90;;;5.07;;
19733;SDS011;10018;51.230;7.860;2022-12-22T08:15:54;7.00;;;4.80;;
19733;SDS011;10018;51.230;7.860;2022-12-22T08:18:19;6.47;;;3.37;;
19733;SDS011;10018;51.230;7.860;2022-12-22T08:20:51;5.43;;;3.50;;
19733;SDS011;10018;51.230;7.860;2022-12-22T08:23:17;5.30;;;3.30;;
19733;SDS011;10018;51.230;7.860;2022-12-22T08:25:43;5.03;;;3.13;;
19733;SDS011;10018;51.230;7.860;2022-12-22T08:28:09;6.47;;;2.90;;
19733;SDS011;10018;51.230;7.860;2022-12-22T08:30:36;4.63;;;2.83;;
19733;SDS011;10018;51.230;7.860;2022-12-22T08:33:02;6.93;;;3.20;;
19733;SDS011;10018;51.230;7.860;2022-12-22T08:35:28;6.73;;;4.10;;
19733;SDS011;10018;51.230;7.860;2022-12-22T08:37:53;5.47;;;4.13;;
19733;SDS011;10018;51.230;7.860;2022-12-22T08:40:29;6.37;;;4.17;;
19733;SDS011;10018;51.230;7.860;2022-12-22T08:42:58;6.57;;;4.97;;
19733;SDS011;10018;51.230;7.860;2022-12-22T08:45:27;8.13;;;4.93;;
19733;SDS011;10018;51.230;7.860;2022-12-22T08:47:53;6.90;;;4.63;;
19733;SDS011;10018;51.230;7.860;2022-12-22T08:50:19;8.37;;;5.07;;
19733;SDS011;10018;51.230;7.860;2022-12-22T08:52:44;8.07;;;4.57;;
19733;SDS011;10018;51.230;7.860;2022-12-22T08:55:10;8.10;;;4.83;;
19733;SDS011;10018;51.230;7.860;2022-12-22T08:57:35;7.30;;;4.67;;
19733;SDS011;10018;51.230;7.860;2022-12-22T09:00:02;8.77;;;4.90;;
19733;SDS011;10018;51.230;7.860;2022-12-22T09:02:30;7.13;;;3.97;;
19733;SDS011;10018;51.230;7.860;2022-12-22T09:04:56;5.97;;;3.80;;
19733;SDS011;10018;51.230;7.860;2022-12-22T09:07:21;10.47;;;5.97;;
19733;SDS011;10018;51.230;7.860;2022-12-22T09:09:47;9.20;;;5.13;;
19733;SDS011;10018;51.230;7.860;2022-12-22T09:12:12;7.73;;;4.80;;
19733;SDS011;10018;51.230;7.860;2022-12-22T09:14:38;7.93;;;5.00;;
19733;SDS011;10018;51.230;7.860;2022-12-22T09:17:03;8.43;;;6.23;;
19733;SDS011;10018;51.230;7.860;2022-12-22T09:19:29;7.13;;;4.97;;
19733;SDS011;10018;51.230;7.860;2022-12-22T09:21:54;7.23;;;3.70;;
19733;SDS011;10018;51.230;7.860;2022-12-22T09:24:20;8.87;;;5.40;;
19733;SDS011;10018;51.230;7.860;2022-12-22T09:26:45;7.67;;;3.80;;
19733;SDS011;10018;51.230;7.860;2022-12-22T09:29:11;9.20;;;4.77;;
19733;SDS011;10018;51.230;7.860;2022-12-22T09:31:39;8.50;;;5.90;;
19733;SDS011;10018;51.230;7.860;2022-12-22T09:34:05;12.37;;;7.50;;
19733;SDS011;10018;51.230;7.860;2022-12-22T09:36:31;9.30;;;5.87;;
19733;SDS011;10018;51.230;7.860;2022-12-22T09:38:57;7.90;;;4.83;;
19733;SDS011;10018;51.230;7.860;2022-12-22T09:41:29;7.00;;;3.70;;
19733;SDS011;10018;51.230;7.860;2022-12-22T09:44:08;8.00;;;4.57;;
19733;SDS011;10018;51.230;7.860;2022-12-22T09:46:45;6.43;;;4.20;;
19733;SDS011;10018;51.230;7.860;2022-12-22T09:49:11;8.00;;;4.73;;
19733;SDS011;10018;51.230;7.860;2022-12-22T09:51:41;9.57;;;5.63;;
19733;SDS011;10018;51.230;7.860;2022-12-22T09:54:09;10.03;;;5.73;;
19733;SDS011;10018;51.230;7.860;2022-12-22T09:56:36;8.03;;;5.30;;
19733;SDS011;10018;51.230;7.860;2022-12-22T09:59:07;8.63;;;4.87;;
19733;SDS011;10018;51.230;7.860;2022-12-22T10:01:44;9.07;;;5.87;;
19733;SDS011;10018;51.230;7.860;2022-12-22T10:07:35;8.10;;;5.50;;
19733;SDS011;10018;51.230;7.860;2022-12-22T10:10:22;8.10;;;5.73;;
19733;SDS011;10018;51.230;7.860;2022-12-22T10:12:55;7.30;;;5.00;;
19733;SDS011;10018;51.230;7.860;2022-12-22T10:15:22;8.47;;;5.97;;
19733;SDS011;10018;51.230;7.860;2022-12-22T10:17:49;7.03;;;5.20;;
19733;SDS011;10018;51.230;7.860;2022-12-22T10:20:23;8.30;;;5.73;;
19733;SDS011;10018;51.230;7.860;2022-12-22T10:22:59;9.80;;;6.57;;
19733;SDS011;10018;51.230;7.860;2022-12-22T10:25:33;8.87;;;5.70;;
19733;SDS011;10018;51.230;7.860;2022-12-22T10:28:23;7.97;;;5.47;;
19733;SDS011;10018;51.230;7.860;2022-12-22T10:31:08;8.13;;;5.33;;
19733;SDS011;10018;51.230;7.860;2022-12-22T10:33:46;7.20;;;5.50;;
19733;SDS011;10018;51.230;7.860;2022-12-22T10:36:15;8.73;;;6.17;;
19733;SDS011;10018;51.230;7.860;2022-12-22T10:38:53;8.73;;;5.83;;
19733;SDS011;10018;51.230;7.860;2022-12-22T10:41:26;9.13;;;6.63;;
19733;SDS011;10018;51.230;7.860;2022-12-22T10:43:59;10.33;;;7.10;;
19733;SDS011;10018;51.230;7.860;2022-12-22T10:49:09;9.07;;;6.90;;
19733;SDS011;10018;51.230;7.860;2022-12-22T10:51:39;9.23;;;6.83;;
19733;SDS011;10018;51.230;7.860;2022-12-22T10:54:06;9.20;;;6.73;;
19733;SDS011;10018;51.230;7.860;2022-12-22T10:56:32;10.17;;;6.47;;
19733;SDS011;10018;51.230;7.860;2022-12-22T11:01:37;9.10;;;5.60;;
19733;SDS011;10018;51.230;7.860;2022-12-22T11:06:48;8.07;;;5.17;;
19733;SDS011;10018;51.230;7.860;2022-12-22T11:09:15;7.57;;;5.37;;
19733;SDS011;10018;51.230;7.860;2022-12-22T11:11:44;8.27;;;5.57;;
19733;SDS011;10018;51.230;7.860;2022-12-22T11:20:02;8.20;;;6.00;;
19733;SDS011;10018;51.230;7.860;2022-12-22T11:40:08;14.33;;;8.20;;
19733;SDS011;10018;51.230;7.860;2022-12-22T11:56:46;15.50;;;9.63;;
19733;SDS011;10018;51.230;7.860;2022-12-22T12:07:53;13.17;;;7.70;;
19733;SDS011;10018;51.230;7.860;2022-12-22T12:10:51;13.07;;;7.97;;
19733;SDS011;10018;51.230;7.860;2022-12-22T12:13:33;13.10;;;8.33;;
19733;SDS011;10018;51.230;7.860;2022-12-22T12:16:13;15.10;;;8.87;;
19733;SDS011;10018;51.230;7.860;2022-12-22T12:21:43;17.27;;;9.87;;
19733;SDS011;10018;51.230;7.860;2022-12-22T12:26:51;16.07;;;9.70;;
19733;SDS011;10018;51.230;7.860;2022-12-22T12:29:28;16.23;;;9.77;;
19733;SDS011;10018;51.230;7.860;2022-12-22T12:32:20;14.80;;;9.10;;
19733;SDS011;10018;51.230;7.860;2022-12-22T12:34:51;18.07;;;9.33;;
19733;SDS011;10018;51.230;7.860;2022-12-22T12:37:28;15.50;;;9.27;;
19733;SDS011;10018;51.230;7.860;2022-12-22T12:42:58;16.33;;;10.40;;
19733;SDS011;10018;51.230;7.860;2022-12-22T12:45:39;16.30;;;10.03;;
19733;SDS011;10018;51.230;7.860;2022-12-22T12:50:44;16.90;;;9.37;;
19733;SDS011;10018;51.230;7.860;2022-12-22T12:53:30;13.57;;;8.00;;
19733;SDS011;10018;51.230;7.860;2022-12-22T12:55:56;13.00;;;7.60;;
19733;SDS011;10018;51.230;7.860;2022-12-22T13:01:11;14.40;;;7.73;;
19733;SDS011;10018;51.230;7.860;2022-12-22T13:03:57;12.67;;;7.03;;
19733;SDS011;10018;51.230;7.860;2022-12-22T13:09:15;12.67;;;5.83;;
19733;SDS011;10018;51.230;7.860;2022-12-22T13:11:43;11.53;;;6.43;;
19733;SDS011;10018;51.230;7.860;2022-12-22T13:14:08;11.13;;;6.00;;
19733;SDS011;10018;51.230;7.860;2022-12-22T13:16:35;11.60;;;6.07;;
19733;SDS011;10018;51.230;7.860;2022-12-22T13:19:04;10.80;;;5.80;;
19733;SDS011;10018;51.230;7.860;2022-12-22T13:21:37;13.23;;;5.87;;
19733;SDS011;10018;51.230;7.860;2022-12-22T13:26:40;12.07;;;7.53;;
19733;SDS011;10018;51.230;7.860;2022-12-22T13:31:41;9.73;;;5.03;;
19733;SDS011;10018;51.230;7.860;2022-12-22T13:36:54;11.67;;;5.80;;
19733;SDS011;10018;51.230;7.860;2022-12-22T13:39:22;9.27;;;6.00;;
19733;SDS011;10018;51.230;7.860;2022-12-22T13:41:48;9.73;;;6.20;;
19733;SDS011;10018;51.230;7.860;2022-12-22T13:44:15;10.23;;;6.67;;
19733;SDS011;10018;51.230;7.860;2022-12-22T13:46:44;10.97;;;5.80;;
19733;SDS011;10018;51.230;7.860;2022-12-22T13:49:12;12.60;;;6.77;;
19733;SDS011;10018;51.230;7.860;2022-12-22T13:51:41;10.10;;;6.00;;
19733;SDS011;10018;51.230;7.860;2022-12-22T13:56:34;10.00;;;5.90;;
19733;SDS011;10018;51.230;7.860;2022-12-22T13:59:15;11.47;;;6.17;;
19733;SDS011;10018;51.230;7.860;2022-12-22T14:01:56;13.03;;;6.60;;
19733;SDS011;10018;51.230;7.860;2022-12-22T14:04:27;12.37;;;6.30;;
19733;SDS011;10018;51.230;7.860;2022-12-22T14:06:53;12.50;;;6.83;;
19733;SDS011;10018;51.230;7.860;2022-12-22T14:11:55;12.17;;;6.57;;
19733;SDS011;10018;51.230;7.860;2022-12-22T14:14:32;11.10;;;7.10;;
19733;SDS011;10018;51.230;7.860;2022-12-22T14:17:00;11.00;;;7.00;;
19733;SDS011;10018;51.230;7.860;2022-12-22T14:19:29;11.70;;;7.00;;
19733;SDS011;10018;51.230;7.860;2022-12-22T14:22:14;11.13;;;7.43;;
19733;SDS011;10018;51.230;7.860;2022-12-22T14:24:50;14.77;;;9.10;;
19733;SDS011;10018;51.230;7.860;2022-12-22T14:30:04;13.50;;;7.57;;
19733;SDS011;10018;51.230;7.860;2022-12-22T14:32:40;10.50;;;6.47;;
19733;SDS011;10018;51.230;7.860;2022-12-22T14:40:41;13.47;;;6.80;;
19733;SDS011;10018;51.230;7.860;2022-12-22T14:45:41;13.43;;;8.30;;
19733;SDS011;10018;51.230;7.860;2022-12-22T14:48:08;11.70;;;7.80;;
19733;SDS011;10018;51.230;7.860;2022-12-22T14:50:45;11.77;;;7.37;;
19733;SDS011;10018;51.230;7.860;2022-12-22T14:53:13;12.13;;;6.93;;
19733;SDS011;10018;51.230;7.860;2022-12-22T14:55:40;14.13;;;8.53;;
19733;SDS011;10018;51.230;7.860;2022-12-22T14:58:16;13.90;;;7.93;;
19733;SDS011;10018;51.230;7.860;2022-12-22T15:01:10;15.90;;;8.83;;
19733;SDS011;10018;51.230;7.860;2022-12-22T15:03:40;14.13;;;8.93;;
19733;SDS011;10018;51.230;7.860;2022-12-22T15:08:51;13.70;;;8.30;;
19733;SDS011;10018;51.230;7.860;2022-12-22T15:11:36;15.37;;;8.70;;
19733;SDS011;10018;51.230;7.860;2022-12-22T15:14:04;15.33;;;10.23;;
19733;SDS011;10018;51.230;7.860;2022-12-22T15:16:35;15.63;;;8.80;;
19733;SDS011;10018;51.230;7.860;2022-12-22T15:19:01;19.07;;;9.33;;
19733;SDS011;10018;51.230;7.860;2022-12-22T15:21:29;16.20;;;10.57;;
19733;SDS011;10018;51.230;7.860;2022-12-22T15:23:55;16.17;;;10.53;;
19733;SDS011;10018;51.230;7.860;2022-12-22T15:26:20;19.17;;;12.23;;
19733;SDS011;10018;51.230;7.860;2022-12-22T15:28:46;15.00;;;9.80;;
19733;SDS011;10018;51.230;7.860;2022-12-22T15:31:12;14.13;;;9.13;;
19733;SDS011;10018;51.230;7.860;2022-12-22T15:33:40;14.37;;;8.87;;
19733;SDS011;10018;51.230;7.860;2022-12-22T15:36:08;21.70;;;14.00;;
19733;SDS011;10018;51.230;7.860;2022-12-22T15:38:35;20.87;;;11.80;;
19733;SDS011;10018;51.230;7.860;2022-12-22T15:41:02;16.00;;;10.43;;
19733;SDS011;10018;51.230;7.860;2022-12-22T15:43:28;20.00;;;12.60;;
19733;SDS011;10018;51.230;7.860;2022-12-22T15:45:53;23.43;;;14.73;;
19733;SDS011;10018;51.230;7.860;2022-12-22T15:48:21;21.33;;;14.37;;
19733;SDS011;10018;51.230;7.860;2022-12-22T15:50:50;24.37;;;16.13;;
19733;SDS011;10018;51.230;7.860;2022-12-22T15:53:18;26.37;;;17.37;;
19733;SDS011;10018;51.230;7.860;2022-12-22T15:55:45;23.03;;;14.77;;
19733;SDS011;10018;51.230;7.860;2022-12-22T15:58:14;20.13;;;13.03;;
19733;SDS011;10018;51.230;7.860;2022-12-22T16:00:42;19.10;;;12.30;;
19733;SDS011;10018;51.230;7.860;2022-12-22T16:03:08;19.03;;;10.83;;
19733;SDS011;10018;51.230;7.860;2022-12-22T16:05:35;17.37;;;9.53;;
19733;SDS011;10018;51.230;7.860;2022-12-22T16:08:01;15.37;;;10.47;;
19733;SDS011;10018;51.230;7.860;2022-12-22T16:10:29;20.43;;;12.50;;
19733;SDS011;10018;51.230;7.860;2022-12-22T16:12:58;20.00;;;12.27;;
19733;SDS011;10018;51.230;7.860;2022-12-22T16:15:27;19.53;;;11.93;;
19733;SDS011;10018;51.230;7.860;2022-12-22T16:18:00;20.77;;;13.17;;
19733;SDS011;10018;51.230;7.860;2022-12-22T16:20:27;20.83;;;13.50;;
19733;SDS011;10018;51.230;7.860;2022-12-22T16:22:55;18.00;;;12.83;;
19733;SDS011;10018;51.230;7.860;2022-12-22T16:25:24;24.70;;;16.23;;
19733;SDS011;10018;51.230;7.860;2022-12-22T16:27:55;23.13;;;14.67;;
19733;SDS011;10018;51.230;7.860;2022-12-22T16:30:22;24.73;;;15.87;;
19733;SDS011;10018;51.230;7.860;2022-12-22T16:32:48;29.63;;;19.80;;
19733;SDS011;10018;51.230;7.860;2022-12-22T16:35:16;35.37;;;22.40;;
19733;SDS011;10018;51.230;7.860;2022-12-22T16:37:44;36.93;;;25.13;;
19733;SDS011;10018;51.230;7.860;2022-12-22T16:40:10;36.93;;;23.90;;
19733;SDS011;10018;51.230;7.860;2022-12-22T16:42:37;26.43;;;16.90;;
19733;SDS011;10018;51.230;7.860;2022-12-22T16:45:05;34.57;;;21.50;;
19733;SDS011;10018;51.230;7.860;2022-12-22T16:47:43;29.20;;;19.33;;
19733;SDS011;10018;51.230;7.860;2022-12-22T16:50:14;27.07;;;17.83;;
19733;SDS011;10018;51.230;7.860;2022-12-22T16:52:42;33.60;;;22.43;;
19733;SDS011;10018;51.230;7.860;2022-12-22T16:55:17;53.00;;;35.03;;
19733;SDS011;10018;51.230;7.860;2022-12-22T16:57:45;51.03;;;34.27;;
19733;SDS011;10018;51.230;7.860;2022-12-22T17:00:14;45.20;;;30.67;;
19733;SDS011;10018;51.230;7.860;2022-12-22T17:02:41;36.97;;;24.87;;
19733;SDS011;10018;51.230;7.860;2022-12-22T17:05:12;39.83;;;25.40;;
19733;SDS011;10018;51.230;7.860;2022-12-22T17:07:51;26.97;;;17.20;;
19733;SDS011;10018;51.230;7.860;2022-12-22T17:10:18;23.57;;;12.67;;